sensor_id;sensor_type;location;lat;lon;timestamp;P1;durP1;ratioP1;P2;durP2;ratioP2
20179;SDS011;10249;48.900;9.090;2024-03-02T00:00:09;6.33;;;6.13;;
20179;SDS011;10249;48.900;9.090;2024-03-02T00:02:39;5.97;;;5.77;;
20179;SDS011;10249;48.900;9.090;2024-03-02T00:05:08;6.40;;;6.20;;
20179;SDS011;10249;48.900;9.090;2024-03-02T00:07:37;6.20;;;6.00;;
20179;SDS011;10249;48.900;9.090;2024-03-02T00:10:07;6.00;;;5.80;;
20179;SDS011;10249;48.900;9.090;2024-03-02T00:12:36;6.27;;;6.07;;
20179;SDS011;10249;48.900;9.090;2024-03-02T00:15:04;6.30;;;6.10;;
20179;SDS011;10249;48.900;9.090;2024-03-02T00:17:32;5.73;;;5.53;;
20179;SDS011;10249;48.900;9.090;2024-03-02T00:19:59;5.90;;;5.70;;
20179;SDS011;10249;48.900;9.090;2024-03-02T00:22:30;5.80;;;5.60;;
20179;SDS011;10249;48.900;9.090;2024-03-02T00:24:57;5.90;;;5.70;;
20179;SDS011;10249;48.900;9.090;2024-03-02T00:27:24;5.60;;;5.40;;
20179;SDS011;10249;48.900;9.090;2024-03-02T00:29:52;6.00;;;5.80;;
20179;SDS011;10249;48.900;9.090;2024-03-02T00:32:19;5.90;;;5.70;;
20179;SDS011;10249;48.900;9.090;2024-03-02T00:34:46;6.17;;;5.97;;
20179;SDS011;10249;48.900;9.090;2024-03-02T00:37:14;6.20;;;6.00;;
20179;SDS011;10249;48.900;9.090;2024-03-02T00:39:43;6.23;;;6.03;;
20179;SDS011;10249;48.900;9.090;2024-03-02T00:42:10;6.60;;;6.40;;
20179;SDS011;10249;48.900;9.090;2024-03-02T00:44:38;6.80;;;6.60;;
20179;SDS011;10249;48.900;9.090;2024-03-02T00:47:05;6.70;;;6.50;;
20179;SDS011;10249;48.900;9.090;2024-03-02T00:49:33;6.63;;;6.43;;
20179;SDS011;10249;48.900;9.090;2024-03-02T00:52:00;6.80;;;6.60;;
20179;SDS011;10249;48.900;9.090;2024-03-02T00:54:28;29.83;;;28.03;;
20179;SDS011;10249;48.900;9.090;2024-03-02T00:56:57;7.23;;;7.03;;
20179;SDS011;10249;48.900;9.090;2024-03-02T00:59:24;6.90;;;6.70;;
20179;SDS011;10249;48.900;9.090;2024-03-02T01:01:52;7.00;;;6.80;;
20179;SDS011;10249;48.900;9.090;2024-03-02T01:04:19;6.70;;;6.50;;
20179;SDS011;10249;48.900;9.090;2024-03-02T01:06:46;7.10;;;6.90;;
20179;SDS011;10249;48.900;9.090;2024-03-02T01:09:13;7.37;;;7.17;;
20179;SDS011;10249;48.900;9.090;2024-03-02T01:11:42;7.00;;;6.80;;
20179;SDS011;10249;48.900;9.090;2024-03-02T01:14:11;7.20;;;7.00;;
20179;SDS011;10249;48.900;9.090;2024-03-02T01:16:38;7.37;;;7.17;;
20179;SDS011;10249;48.900;9.090;2024-03-02T01:19:05;7.70;;;7.50;;
20179;SDS011;10249;48.900;9.090;2024-03-02T01:21:32;7.40;;;7.20;;
20179;SDS011;10249;48.900;9.090;2024-03-02T01:23:59;7.33;;;7.13;;
20179;SDS011;10249;48.900;9.090;2024-03-02T01:26:26;7.50;;;7.30;;
20179;SDS011;10249;48.900;9.090;2024-03-02T01:28:53;7.37;;;7.17;;
20179;SDS011;10249;48.900;9.090;2024-03-02T01:31:22;7.13;;;6.93;;
20179;SDS011;10249;48.900;9.090;2024-03-02T01:33:49;7.20;;;7.00;;
20179;SDS011;10249;48.900;9.090;2024-03-02T01:36:16;7.00;;;6.80;;
20179;SDS011;10249;48.900;9.090;2024-03-02T01:38:43;6.90;;;6.70;;
20179;SDS011;10249;48.900;9.090;2024-03-02T01:41:10;6.60;;;6.40;;
20179;SDS011;10249;48.900;9.090;2024-03-02T01:43:38;6.60;;;6.40;;
20179;SDS011;10249;48.900;9.090;2024-03-02T01:46:05;6.30;;;6.10;;
20179;SDS011;10249;48.900;9.090;2024-03-02T01:48:34;6.40;;;6.20;;
20179;SDS011;10249;48.900;9.090;2024-03-02T01:51:01;6.40;;;6.20;;
20179;SDS011;10249;48.900;9.090;2024-03-02T01:53:29;6.50;;;6.30;;
20179;SDS011;10249;48.900;9.090;2024-03-02T01:55:56;6.87;;;6.67;;
20179;SDS011;10249;48.900;9.090;2024-03-02T01:58:23;6.30;;;6.10;;
20179;SDS011;10249;48.900;9.090;2024-03-02T02:00:50;6.10;;;5.90;;
20179;SDS011;10249;48.900;9.090;2024-03-02T02:03:17;6.30;;;6.10;;
20179;SDS011;10249;48.900;9.090;2024-03-02T02:05:46;6.40;;;6.20;;
20179;SDS011;10249;48.900;9.090;2024-03-02T02:08:14;6.33;;;6.13;;
20179;SDS011;10249;48.900;9.090;2024-03-02T02:10:41;6.20;;;6.00;;
20179;SDS011;10249;48.900;9.090;2024-03-02T02:13:08;6.27;;;6.07;;
20179;SDS011;10249;48.900;9.090;2024-03-02T02:15:36;6.50;;;6.30;;
20179;SDS011;10249;48.900;9.090;2024-03-02T02:18:03;6.40;;;6.20;;
20179;SDS011;10249;48.900;9.090;2024-03-02T02:20:30;6.50;;;6.30;;
20179;SDS011;10249;48.900;9.090;2024-03-02T02:22:59;6.77;;;6.57;;
20179;SDS011;10249;48.900;9.090;2024-03-02T02:25:25;7.00;;;6.80;;
20179;SDS011;10249;48.900;9.090;2024-03-02T02:27:53;6.90;;;6.70;;
20179;SDS011;10249;48.900;9.090;2024-03-02T02:30:20;6.60;;;6.40;;
20179;SDS011;10249;48.900;9.090;2024-03-02T02:32:48;6.83;;;6.63;;
20179;SDS011;10249;48.900;9.090;2024-03-02T02:35:15;6.67;;;6.47;;
20179;SDS011;10249;48.900;9.090;2024-03-02T02:37:42;6.70;;;6.50;;
20179;SDS011;10249;48.900;9.090;2024-03-02T02:40:11;6.80;;;6.60;;
20179;SDS011;10249;48.900;9.090;2024-03-02T02:42:38;6.80;;;6.60;;
20179;SDS011;10249;48.900;9.090;2024-03-02T02:45:06;6.90;;;6.70;;
20179;SDS011;10249;48.900;9.090;2024-03-02T02:47:34;7.33;;;7.13;;
20179;SDS011;10249;48.900;9.090;2024-03-02T02:50:01;7.23;;;7.03;;
20179;SDS011;10249;48.900;9.090;2024-03-02T02:52:32;6.50;;;6.30;;
20179;SDS011;10249;48.900;9.090;2024-03-02T02:55:02;6.30;;;6.10;;
20179;SDS011;10249;48.900;9.090;2024-03-02T02:57:31;6.60;;;6.40;;
20179;SDS011;10249;48.900;9.090;2024-03-02T03:00:01;6.57;;;6.38;;
20179;SDS011;10249;48.900;9.090;2024-03-02T03:02:30;7.13;;;6.93;;
20179;SDS011;10249;48.900;9.090;2024-03-02T03:04:58;7.03;;;6.83;;
20179;SDS011;10249;48.900;9.090;2024-03-02T03:07:25;6.70;;;6.50;;
20179;SDS011;10249;48.900;9.090;2024-03-02T03:09:52;6.80;;;6.60;;
20179;SDS011;10249;48.900;9.090;2024-03-02T03:12:19;6.67;;;6.47;;
20179;SDS011;10249;48.900;9.090;2024-03-02T03:14:48;6.80;;;6.60;;
20179;SDS011;10249;48.900;9.090;2024-03-02T03:17:15;6.60;;;6.40;;
20179;SDS011;10249;48.900;9.090;2024-03-02T03:19:43;6.87;;;6.67;;
20179;SDS011;10249;48.900;9.090;2024-03-02T03:22:10;6.73;;;6.53;;
20179;SDS011;10249;48.900;9.090;2024-03-02T03:24:38;6.53;;;6.33;;
20179;SDS011;10249;48.900;9.090;2024-03-02T03:27:05;6.57;;;6.37;;
20179;SDS011;10249;48.900;9.090;2024-03-02T03:29:32;6.63;;;6.43;;
20179;SDS011;10249;48.900;9.090;2024-03-02T03:32:01;6.90;;;6.70;;
20179;SDS011;10249;48.900;9.090;2024-03-02T03:34:29;6.40;;;6.20;;
20179;SDS011;10249;48.900;9.090;2024-03-02T03:36:56;6.70;;;6.50;;
20179;SDS011;10249;48.900;9.090;2024-03-02T03:39:23;6.60;;;6.40;;
20179;SDS011;10249;48.900;9.090;2024-03-02T03:41:50;6.60;;;6.40;;
20179;SDS011;10249;48.900;9.090;2024-03-02T03:44:17;6.60;;;6.40;;
20179;SDS011;10249;48.900;9.090;2024-03-02T03:46:45;6.57;;;6.37;;
20179;SDS011;10249;48.900;9.090;2024-03-02T03:49:13;6.80;;;6.60;;
20179;SDS011;10249;48.900;9.090;2024-03-02T03:51:40;6.53;;;6.33;;
20179;SDS011;10249;48.900;9.090;2024-03-02T03:54:07;6.83;;;6.63;;
20179;SDS011;10249;48.900;9.090;2024-03-02T03:56:36;7.03;;;6.83;;
20179;SDS011;10249;48.900;9.090;2024-03-02T03:59:03;7.10;;;6.90;;
20179;SDS011;10249;48.900;9.090;2024-03-02T04:01:30;6.80;;;6.60;;
20179;SDS011;10249;48.900;9.090;2024-03-02T04:03:58;6.93;;;6.73;;
20179;SDS011;10249;48.900;9.090;2024-03-02T04:06:28;7.07;;;6.87;;
20179;SDS011;10249;48.900;9.090;2024-03-02T04:08:55;6.97;;;6.77;;
20179;SDS011;10249;48.900;9.090;2024-03-02T04:11:22;7.00;;;6.80;;
20179;SDS011;10249;48.900;9.090;2024-03-02T04:13:49;7.00;;;6.80;;
20179;SDS011;10249;48.900;9.090;2024-03-02T04:16:16;7.20;;;7.00;;
20179;SDS011;10249;48.900;9.090;2024-03-02T04:18:44;6.80;;;6.60;;
20179;SDS011;10249;48.900;9.090;2024-03-02T04:21:11;7.00;;;6.80;;
20179;SDS011;10249;48.900;9.090;2024-03-02T04:23:39;7.20;;;7.00;;
20179;SDS011;10249;48.900;9.090;2024-03-02T04:26:06;6.93;;;6.73;;
20179;SDS011;10249;48.900;9.090;2024-03-02T04:28:33;6.60;;;6.40;;
20179;SDS011;10249;48.900;9.090;2024-03-02T04:31:00;7.10;;;6.90;;
20179;SDS011;10249;48.900;9.090;2024-03-02T04:33:27;6.70;;;6.50;;
20179;SDS011;10249;48.900;9.090;2024-03-02T04:35:55;6.67;;;6.47;;
20179;SDS011;10249;48.900;9.090;2024-03-02T04:38:22;6.70;;;6.50;;
20179;SDS011;10249;48.900;9.090;2024-03-02T04:40:51;6.80;;;6.60;;
20179;SDS011;10249;48.900;9.090;2024-03-02T04:43:18;7.00;;;6.80;;
20179;SDS011;10249;48.900;9.090;2024-03-02T04:45:45;6.60;;;6.40;;
20179;SDS011;10249;48.900;9.090;2024-03-02T04:48:12;6.50;;;6.30;;
20179;SDS011;10249;48.900;9.090;2024-03-02T04:50:40;6.60;;;6.40;;
20179;SDS011;10249;48.900;9.090;2024-03-02T04:53:07;6.47;;;6.27;;
20179;SDS011;10249;48.900;9.090;2024-03-02T04:55:34;6.60;;;6.40;;
20179;SDS011;10249;48.900;9.090;2024-03-02T04:58:30;6.40;;;6.20;;
20179;SDS011;10249;48.900;9.090;2024-03-02T05:00:57;6.10;;;5.90;;
20179;SDS011;10249;48.900;9.090;2024-03-02T05:03:24;6.20;;;6.00;;
20179;SDS011;10249;48.900;9.090;2024-03-02T05:05:51;5.70;;;5.50;;
20179;SDS011;10249;48.900;9.090;2024-03-02T05:08:18;5.90;;;5.70;;
20179;SDS011;10249;48.900;9.090;2024-03-02T05:10:45;6.10;;;5.90;;
20179;SDS011;10249;48.900;9.090;2024-03-02T05:13:13;6.00;;;5.80;;
20179;SDS011;10249;48.900;9.090;2024-03-02T05:15:41;5.90;;;5.70;;
20179;SDS011;10249;48.900;9.090;2024-03-02T05:18:08;5.57;;;5.37;;
20179;SDS011;10249;48.900;9.090;2024-03-02T05:20:35;5.90;;;5.70;;
20179;SDS011;10249;48.900;9.090;2024-03-02T05:23:02;5.93;;;5.73;;
20179;SDS011;10249;48.900;9.090;2024-03-02T05:25:29;6.00;;;5.80;;
20179;SDS011;10249;48.900;9.090;2024-03-02T05:27:57;6.20;;;6.00;;
20179;SDS011;10249;48.900;9.090;2024-03-02T05:30:24;6.23;;;6.03;;
20179;SDS011;10249;48.900;9.090;2024-03-02T05:32:53;6.40;;;6.20;;
20179;SDS011;10249;48.900;9.090;2024-03-02T05:35:20;6.30;;;6.10;;
20179;SDS011;10249;48.900;9.090;2024-03-02T05:37:47;6.30;;;6.10;;
20179;SDS011;10249;48.900;9.090;2024-03-02T05:40:14;6.20;;;6.00;;
20179;SDS011;10249;48.900;9.090;2024-03-02T05:42:41;6.20;;;6.00;;
20179;SDS011;10249;48.900;9.090;2024-03-02T05:45:09;6.10;;;5.90;;
20179;SDS011;10249;48.900;9.090;2024-03-02T05:47:36;6.40;;;6.20;;
20179;SDS011;10249;48.900;9.090;2024-03-02T05:50:05;6.10;;;5.90;;
20179;SDS011;10249;48.900;9.090;2024-03-02T05:52:33;6.17;;;5.97;;
20179;SDS011;10249;48.900;9.090;2024-03-02T05:55:00;6.10;;;5.90;;
20179;SDS011;10249;48.900;9.090;2024-03-02T05:57:27;6.27;;;6.07;;
20179;SDS011;10249;48.900;9.090;2024-03-02T06:00:14;6.20;;;6.00;;
20179;SDS011;10249;48.900;9.090;2024-03-02T06:02:42;6.27;;;6.07;;
20179;SDS011;10249;48.900;9.090;2024-03-02T06:05:10;5.90;;;5.70;;
20179;SDS011;10249;48.900;9.090;2024-03-02T06:07:37;6.10;;;5.90;;
20179;SDS011;10249;48.900;9.090;2024-03-02T06:10:05;6.30;;;6.10;;
20179;SDS011;10249;48.900;9.090;2024-03-02T06:12:33;6.00;;;5.80;;
20179;SDS011;10249;48.900;9.090;2024-03-02T06:15:00;6.30;;;6.10;;
20179;SDS011;10249;48.900;9.090;2024-03-02T06:17:28;6.30;;;6.10;;
20179;SDS011;10249;48.900;9.090;2024-03-02T06:19:56;6.40;;;6.20;;
20179;SDS011;10249;48.900;9.090;2024-03-02T06:22:24;6.40;;;6.20;;
20179;SDS011;10249;48.900;9.090;2024-03-02T06:24:51;6.40;;;6.20;;
20179;SDS011;10249;48.900;9.090;2024-03-02T06:27:19;6.60;;;6.40;;
20179;SDS011;10249;48.900;9.090;2024-03-02T06:29:46;6.70;;;6.50;;
20179;SDS011;10249;48.900;9.090;2024-03-02T06:32:13;7.50;;;7.20;;
20179;SDS011;10249;48.900;9.090;2024-03-02T06:34:41;6.20;;;6.00;;
20179;SDS011;10249;48.900;9.090;2024-03-02T06:37:08;5.90;;;5.70;;
20179;SDS011;10249;48.900;9.090;2024-03-02T06:39:36;6.30;;;6.10;;
20179;SDS011;10249;48.900;9.090;2024-03-02T06:42:04;6.20;;;6.00;;
20179;SDS011;10249;48.900;9.090;2024-03-02T06:44:31;6.37;;;6.17;;
20179;SDS011;10249;48.900;9.090;2024-03-02T06:46:59;6.50;;;6.30;;
20179;SDS011;10249;48.900;9.090;2024-03-02T06:49:26;6.33;;;6.13;;
20179;SDS011;10249;48.900;9.090;2024-03-02T06:51:53;6.20;;;6.00;;
20179;SDS011;10249;48.900;9.090;2024-03-02T06:54:20;6.50;;;6.30;;
20179;SDS011;10249;48.900;9.090;2024-03-02T06:56:49;6.50;;;6.30;;
20179;SDS011;10249;48.900;9.090;2024-03-02T06:59:16;6.50;;;6.30;;
20179;SDS011;10249;48.900;9.090;2024-03-02T07:01:43;7.07;;;6.87;;
20179;SDS011;10249;48.900;9.090;2024-03-02T07:04:10;15.07;;;14.57;;
20179;SDS011;10249;48.900;9.090;2024-03-02T07:06:38;8.53;;;8.23;;
20179;SDS011;10249;48.900;9.090;2024-03-02T07:09:05;7.40;;;7.20;;
20179;SDS011;10249;48.900;9.090;2024-03-02T07:11:35;7.47;;;7.27;;
20179;SDS011;10249;48.900;9.090;2024-03-02T07:14:04;7.50;;;7.30;;
20179;SDS011;10249;48.900;9.090;2024-03-02T07:16:31;8.27;;;7.97;;
20179;SDS011;10249;48.900;9.090;2024-03-02T07:18:58;7.93;;;7.73;;
20179;SDS011;10249;48.900;9.090;2024-03-02T07:21:26;7.70;;;7.50;;
20179;SDS011;10249;48.900;9.090;2024-03-02T07:23:54;7.87;;;7.67;;
20179;SDS011;10249;48.900;9.090;2024-03-02T07:26:21;7.90;;;7.70;;
20179;SDS011;10249;48.900;9.090;2024-03-02T07:28:48;7.80;;;7.60;;
20179;SDS011;10249;48.900;9.090;2024-03-02T07:31:17;7.80;;;7.60;;
20179;SDS011;10249;48.900;9.090;2024-03-02T07:33:44;7.70;;;7.50;;
20179;SDS011;10249;48.900;9.090;2024-03-02T07:36:12;7.70;;;7.50;;
20179;SDS011;10249;48.900;9.090;2024-03-02T07:38:40;7.40;;;7.20;;
20179;SDS011;10249;48.900;9.090;2024-03-02T07:41:07;7.40;;;7.20;;
20179;SDS011;10249;48.900;9.090;2024-03-02T07:43:34;7.30;;;7.10;;
20179;SDS011;10249;48.900;9.090;2024-03-02T07:46:02;7.20;;;7.00;;
20179;SDS011;10249;48.900;9.090;2024-03-02T07:48:32;7.30;;;7.10;;
20179;SDS011;10249;48.900;9.090;2024-03-02T07:50:59;7.40;;;7.20;;
20179;SDS011;10249;48.900;9.090;2024-03-02T07:53:27;7.10;;;6.90;;
20179;SDS011;10249;48.900;9.090;2024-03-02T07:55:54;7.20;;;7.00;;
20179;SDS011;10249;48.900;9.090;2024-03-02T07:58:26;7.50;;;7.30;;
20179;SDS011;10249;48.900;9.090;2024-03-02T08:00:54;7.40;;;7.20;;
20179;SDS011;10249;48.900;9.090;2024-03-02T08:03:21;7.67;;;7.47;;
20179;SDS011;10249;48.900;9.090;2024-03-02T08:05:49;7.30;;;7.10;;
20179;SDS011;10249;48.900;9.090;2024-03-02T08:08:16;7.40;;;7.20;;
20179;SDS011;10249;48.900;9.090;2024-03-02T08:10:43;7.20;;;7.00;;
20179;SDS011;10249;48.900;9.090;2024-03-02T08:13:12;7.23;;;7.03;;
20179;SDS011;10249;48.900;9.090;2024-03-02T08:15:39;7.53;;;7.33;;
20179;SDS011;10249;48.900;9.090;2024-03-02T08:18:06;7.80;;;7.60;;
20179;SDS011;10249;48.900;9.090;2024-03-02T08:20:34;7.50;;;7.30;;
20179;SDS011;10249;48.900;9.090;2024-03-02T08:23:03;7.57;;;7.37;;
20179;SDS011;10249;48.900;9.090;2024-03-02T08:25:30;7.53;;;7.33;;
20179;SDS011;10249;48.900;9.090;2024-03-02T08:27:57;7.80;;;7.60;;
20179;SDS011;10249;48.900;9.090;2024-03-02T08:30:24;8.20;;;7.90;;
20179;SDS011;10249;48.900;9.090;2024-03-02T08:32:52;7.90;;;7.70;;
20179;SDS011;10249;48.900;9.090;2024-03-02T08:35:19;8.33;;;8.03;;
20179;SDS011;10249;48.900;9.090;2024-03-02T08:37:47;8.60;;;8.30;;
20179;SDS011;10249;48.900;9.090;2024-03-02T08:40:16;8.60;;;8.30;;
20179;SDS011;10249;48.900;9.090;2024-03-02T08:42:43;8.50;;;8.20;;
20179;SDS011;10249;48.900;9.090;2024-03-02T08:45:10;8.80;;;8.50;;
20179;SDS011;10249;48.900;9.090;2024-03-02T08:47:38;9.00;;;8.70;;
20179;SDS011;10249;48.900;9.090;2024-03-02T08:50:05;9.40;;;9.10;;
20179;SDS011;10249;48.900;9.090;2024-03-02T08:52:33;9.50;;;9.20;;
20179;SDS011;10249;48.900;9.090;2024-03-02T08:55:01;9.70;;;9.40;;
20179;SDS011;10249;48.900;9.090;2024-03-02T08:57:29;9.57;;;9.27;;
20179;SDS011;10249;48.900;9.090;2024-03-02T08:59:56;9.70;;;9.40;;
20179;SDS011;10249;48.900;9.090;2024-03-02T09:02:23;9.70;;;9.40;;
20179;SDS011;10249;48.900;9.090;2024-03-02T09:04:51;9.80;;;9.50;;
20179;SDS011;10249;48.900;9.090;2024-03-02T09:07:18;9.77;;;9.47;;
20179;SDS011;10249;48.900;9.090;2024-03-02T09:09:45;9.93;;;9.63;;
20179;SDS011;10249;48.900;9.090;2024-03-02T09:12:12;9.83;;;9.53;;
20179;SDS011;10249;48.900;9.090;2024-03-02T09:14:41;9.90;;;9.60;;
20179;SDS011;10249;48.900;9.090;2024-03-02T09:17:08;9.70;;;9.40;;
20179;SDS011;10249;48.900;9.090;2024-03-02T09:19:36;9.87;;;9.57;;
20179;SDS011;10249;48.900;9.090;2024-03-02T09:22:03;9.90;;;9.60;;
20179;SDS011;10249;48.900;9.090;2024-03-02T09:24:31;10.33;;;9.93;;
20179;SDS011;10249;48.900;9.090;2024-03-02T09:26:58;10.17;;;9.77;;
20179;SDS011;10249;48.900;9.090;2024-03-02T09:29:25;10.27;;;9.87;;
20179;SDS011;10249;48.900;9.090;2024-03-02T09:31:53;10.07;;;9.70;;
20179;SDS011;10249;48.900;9.090;2024-03-02T09:34:20;10.50;;;10.10;;
20179;SDS011;10249;48.900;9.090;2024-03-02T09:36:47;10.50;;;10.10;;
20179;SDS011;10249;48.900;9.090;2024-03-02T09:39:16;10.50;;;10.10;;
20179;SDS011;10249;48.900;9.090;2024-03-02T09:41:43;10.50;;;10.10;;
20179;SDS011;10249;48.900;9.090;2024-03-02T09:44:10;10.73;;;10.33;;
20179;SDS011;10249;48.900;9.090;2024-03-02T09:46:37;11.00;;;10.60;;
20179;SDS011;10249;48.900;9.090;2024-03-02T09:49:06;11.20;;;10.80;;
20179;SDS011;10249;48.900;9.090;2024-03-02T09:51:33;11.37;;;10.97;;
20179;SDS011;10249;48.900;9.090;2024-03-02T09:54:00;11.70;;;11.30;;
20179;SDS011;10249;48.900;9.090;2024-03-02T09:56:28;11.83;;;11.33;;
20179;SDS011;10249;48.900;9.090;2024-03-02T09:58:55;11.97;;;11.47;;
20179;SDS011;10249;48.900;9.090;2024-03-02T10:01:22;12.00;;;11.50;;
20179;SDS011;10249;48.900;9.090;2024-03-02T10:03:49;11.80;;;11.30;;
20179;SDS011;10249;48.900;9.090;2024-03-02T10:06:19;12.13;;;11.63;;
20179;SDS011;10249;48.900;9.090;2024-03-02T10:08:46;12.10;;;11.60;;
20179;SDS011;10249;48.900;9.090;2024-03-02T10:11:25;12.60;;;12.10;;
20179;SDS011;10249;48.900;9.090;2024-03-02T10:14:03;12.30;;;11.80;;
20179;SDS011;10249;48.900;9.090;2024-03-02T10:16:33;12.43;;;11.93;;
20179;SDS011;10249;48.900;9.090;2024-03-02T10:19:05;12.60;;;12.10;;
20179;SDS011;10249;48.900;9.090;2024-03-02T10:21:43;13.03;;;12.53;;
20179;SDS011;10249;48.900;9.090;2024-03-02T10:24:10;13.33;;;12.73;;
20179;SDS011;10249;48.900;9.090;2024-03-02T10:26:37;13.00;;;12.50;;
20179;SDS011;10249;48.900;9.090;2024-03-02T10:29:04;12.90;;;12.40;;
20179;SDS011;10249;48.900;9.090;2024-03-02T10:31:31;13.50;;;12.90;;
20179;SDS011;10249;48.900;9.090;2024-03-02T10:33:58;13.00;;;12.50;;
20179;SDS011;10249;48.900;9.090;2024-03-02T10:36:27;13.47;;;12.87;;
20179;SDS011;10249;48.900;9.090;2024-03-02T10:38:57;13.50;;;12.90;;
20179;SDS011;10249;48.900;9.090;2024-03-02T10:41:25;13.67;;;13.07;;
20179;SDS011;10249;48.900;9.090;2024-03-02T10:43:53;13.43;;;12.83;;
20179;SDS011;10249;48.900;9.090;2024-03-02T10:46:25;13.27;;;12.67;;
20179;SDS011;10249;48.900;9.090;2024-03-02T10:48:55;13.70;;;13.10;;
20179;SDS011;10249;48.900;9.090;2024-03-02T10:51:24;13.93;;;13.33;;
20179;SDS011;10249;48.900;9.090;2024-03-02T10:53:51;14.00;;;13.40;;
20179;SDS011;10249;48.900;9.090;2024-03-02T10:56:21;14.00;;;13.40;;
20179;SDS011;10249;48.900;9.090;2024-03-02T10:58:49;14.30;;;13.60;;
20179;SDS011;10249;48.900;9.090;2024-03-02T11:01:17;13.97;;;13.37;;
20179;SDS011;10249;48.900;9.090;2024-03-02T11:03:45;14.00;;;13.40;;
20179;SDS011;10249;48.900;9.090;2024-03-02T11:06:12;14.10;;;13.50;;
20179;SDS011;10249;48.900;9.090;2024-03-02T11:08:40;14.00;;;13.40;;
20179;SDS011;10249;48.900;9.090;2024-03-02T11:11:14;14.37;;;13.67;;
20179;SDS011;10249;48.900;9.090;2024-03-02T11:13:45;15.00;;;14.30;;
20179;SDS011;10249;48.900;9.090;2024-03-02T11:19:00;14.93;;;14.23;;
20179;SDS011;10249;48.900;9.090;2024-03-02T11:21:28;15.20;;;14.50;;
20179;SDS011;10249;48.900;9.090;2024-03-02T11:23:58;14.80;;;14.10;;
20179;SDS011;10249;48.900;9.090;2024-03-02T11:26:27;15.20;;;14.50;;
20179;SDS011;10249;48.900;9.090;2024-03-02T11:28:56;15.17;;;14.47;;
20179;SDS011;10249;48.900;9.090;2024-03-02T11:34:17;16.20;;;15.40;;
20179;SDS011;10249;48.900;9.090;2024-03-02T11:36:44;16.50;;;15.70;;
20179;SDS011;10249;48.900;9.090;2024-03-02T11:39:11;15.97;;;15.17;;
20179;SDS011;10249;48.900;9.090;2024-03-02T11:41:39;16.03;;;15.23;;
20179;SDS011;10249;48.900;9.090;2024-03-02T11:44:07;16.20;;;15.40;;
20179;SDS011;10249;48.900;9.090;2024-03-02T11:46:39;16.70;;;15.87;;
20179;SDS011;10249;48.900;9.090;2024-03-02T11:49:06;15.70;;;14.90;;
20179;SDS011;10249;48.900;9.090;2024-03-02T11:51:34;15.90;;;15.10;;
20179;SDS011;10249;48.900;9.090;2024-03-02T11:54:02;16.30;;;15.50;;
20179;SDS011;10249;48.900;9.090;2024-03-02T11:56:30;16.00;;;15.20;;
20179;SDS011;10249;48.900;9.090;2024-03-02T11:58:58;15.90;;;15.10;;
20179;SDS011;10249;48.900;9.090;2024-03-02T12:01:26;16.00;;;15.20;;
20179;SDS011;10249;48.900;9.090;2024-03-02T12:03:53;16.30;;;15.50;;
20179;SDS011;10249;48.900;9.090;2024-03-02T12:06:21;21.83;;;20.80;;
20179;SDS011;10249;48.900;9.090;2024-03-02T12:08:52;15.60;;;14.80;;
20179;SDS011;10249;48.900;9.090;2024-03-02T12:11:20;15.70;;;14.90;;
20179;SDS011;10249;48.900;9.090;2024-03-02T12:13:53;16.00;;;15.20;;
20179;SDS011;10249;48.900;9.090;2024-03-02T12:16:22;15.60;;;14.90;;
20179;SDS011;10249;48.900;9.090;2024-03-02T12:18:51;15.90;;;15.10;;
20179;SDS011;10249;48.900;9.090;2024-03-02T12:21:18;15.10;;;14.40;;
20179;SDS011;10249;48.900;9.090;2024-03-02T12:23:45;15.30;;;14.60;;
20179;SDS011;10249;48.900;9.090;2024-03-02T12:26:12;15.50;;;14.80;;
20179;SDS011;10249;48.900;9.090;2024-03-02T12:28:39;15.75;;;14.95;;
20179;SDS011;10249;48.900;9.090;2024-03-02T12:31:07;15.73;;;15.02;;
20179;SDS011;10249;48.900;9.090;2024-03-02T12:33:34;15.43;;;14.73;;
20179;SDS011;10249;48.900;9.090;2024-03-02T12:36:04;15.63;;;14.82;;
20179;SDS011;10249;48.900;9.090;2024-03-02T12:38:31;16.00;;;15.20;;
20179;SDS011;10249;48.900;9.090;2024-03-02T12:40:58;15.40;;;14.65;;
20179;SDS011;10249;48.900;9.090;2024-03-02T12:43:29;15.70;;;14.90;;
20179;SDS011;10249;48.900;9.090;2024-03-02T12:45:56;15.40;;;14.65;;
20179;SDS011;10249;48.900;9.090;2024-03-02T12:48:24;15.57;;;14.77;;
20179;SDS011;10249;48.900;9.090;2024-03-02T12:50:51;15.43;;;14.63;;
20179;SDS011;10249;48.900;9.090;2024-03-02T12:53:20;15.82;;;15.02;;
20179;SDS011;10249;48.900;9.090;2024-03-02T12:55:49;15.40;;;14.60;;
20179;SDS011;10249;48.900;9.090;2024-03-02T12:58:16;15.50;;;14.70;;
20179;SDS011;10249;48.900;9.090;2024-03-02T13:00:43;15.50;;;14.70;;
20179;SDS011;10249;48.900;9.090;2024-03-02T13:03:11;15.57;;;14.88;;
20179;SDS011;10249;48.900;9.090;2024-03-02T13:05:38;15.65;;;14.95;;
20179;SDS011;10249;48.900;9.090;2024-03-02T13:08:06;15.50;;;14.77;;
20179;SDS011;10249;48.900;9.090;2024-03-02T13:10:35;15.68;;;14.88;;
20179;SDS011;10249;48.900;9.090;2024-03-02T13:13:02;15.65;;;14.85;;
20179;SDS011;10249;48.900;9.090;2024-03-02T13:15:29;15.43;;;14.65;;
20179;SDS011;10249;48.900;9.090;2024-03-02T13:18:00;15.38;;;14.57;;
20179;SDS011;10249;48.900;9.090;2024-03-02T13:20:29;15.30;;;14.50;;
20179;SDS011;10249;48.900;9.090;2024-03-02T13:22:57;15.10;;;14.35;;
20179;SDS011;10249;48.900;9.090;2024-03-02T13:25:24;15.00;;;14.30;;
20179;SDS011;10249;48.900;9.090;2024-03-02T13:27:53;15.20;;;14.40;;
20179;SDS011;10249;48.900;9.090;2024-03-02T13:30:20;15.02;;;14.30;;
20179;SDS011;10249;48.900;9.090;2024-03-02T13:32:47;15.02;;;14.32;;
20179;SDS011;10249;48.900;9.090;2024-03-02T13:35:15;15.00;;;14.30;;
20179;SDS011;10249;48.900;9.090;2024-03-02T13:37:42;15.00;;;14.30;;
20179;SDS011;10249;48.900;9.090;2024-03-02T13:40:09;15.07;;;14.38;;
20179;SDS011;10249;48.900;9.090;2024-03-02T13:42:38;15.00;;;14.30;;
20179;SDS011;10249;48.900;9.090;2024-03-02T13:45:07;15.18;;;14.38;;
20179;SDS011;10249;48.900;9.090;2024-03-02T13:47:34;15.02;;;14.32;;
20179;SDS011;10249;48.900;9.090;2024-03-02T13:50:02;15.20;;;14.40;;
20179;SDS011;10249;48.900;9.090;2024-03-02T13:52:30;15.00;;;14.30;;
20179;SDS011;10249;48.900;9.090;2024-03-02T13:54:57;14.80;;;14.10;;
20179;SDS011;10249;48.900;9.090;2024-03-02T13:57:24;14.63;;;13.93;;
20179;SDS011;10249;48.900;9.090;2024-03-02T13:59:51;15.20;;;14.40;;
20179;SDS011;10249;48.900;9.090;2024-03-02T14:02:21;15.35;;;14.55;;
20179;SDS011;10249;48.900;9.090;2024-03-02T14:04:48;15.25;;;14.50;;
20179;SDS011;10249;48.900;9.090;2024-03-02T14:07:15;15.10;;;14.30;;
20179;SDS011;10249;48.900;9.090;2024-03-02T14:09:42;15.38;;;14.57;;
20179;SDS011;10249;48.900;9.090;2024-03-02T14:12:10;15.30;;;14.50;;
20179;SDS011;10249;48.900;9.090;2024-03-02T14:14:38;15.57;;;14.77;;
20179;SDS011;10249;48.900;9.090;2024-03-02T14:17:06;15.38;;;14.57;;
20179;SDS011;10249;48.900;9.090;2024-03-02T14:19:38;15.35;;;14.60;;
20179;SDS011;10249;48.900;9.090;2024-03-02T14:22:05;16.02;;;15.23;;
20179;SDS011;10249;48.900;9.090;2024-03-02T14:24:32;15.50;;;14.70;;
20179;SDS011;10249;48.900;9.090;2024-03-02T14:27:01;15.68;;;14.88;;
20179;SDS011;10249;48.900;9.090;2024-03-02T14:29:29;15.65;;;14.85;;
20179;SDS011;10249;48.900;9.090;2024-03-02T14:31:58;15.70;;;14.90;;
20179;SDS011;10249;48.900;9.090;2024-03-02T14:34:25;15.57;;;14.77;;
20179;SDS011;10249;48.900;9.090;2024-03-02T14:36:53;15.40;;;14.70;;
20179;SDS011;10249;48.900;9.090;2024-03-02T14:39:20;15.45;;;14.65;;
20179;SDS011;10249;48.900;9.090;2024-03-02T14:41:50;15.48;;;14.68;;
20179;SDS011;10249;48.900;9.090;2024-03-02T14:44:18;15.52;;;14.73;;
20179;SDS011;10249;48.900;9.090;2024-03-02T14:46:46;15.70;;;14.90;;